createdAt,value
2019-02-26T00:00:36.180Z,78.85
2019-02-26T00:05:32.914Z,78.74
2019-02-26T00:10:29.029Z,78.90
2019-02-26T00:15:23.361Z,79.11
2019-02-26T00:20:18.006Z,78.54
2019-02-26T00:25:15.143Z,80.25
2019-02-26T00:30:15.729Z,81.47
2019-02-26T00:35:10.103Z,81.79
2019-02-26T00:40:09.572Z,82.18
2019-02-26T00:45:07.408Z,81.69
2019-02-26T00:50:00.805Z,83.45
2019-02-26T00:54:57.589Z,81.93
2019-02-26T00:59:51.725Z,81.31
2019-02-26T01:04:48.154Z,82.19
2019-02-26T01:09:42.726Z,83.27
2019-02-26T01:14:39.061Z,82.58
2019-02-26T01:19:34.196Z,82.23
2019-02-26T01:24:30.572Z,80.83
2019-02-26T01:29:27.794Z,80.69
2019-02-26T01:34:22.685Z,80.90
2019-02-26T01:39:19.237Z,81.01
2019-02-26T01:44:13.588Z,82.14
2019-02-26T01:49:08.185Z,82.20
2019-02-26T01:54:02.754Z,81.89
2019-02-26T01:59:02.092Z,83.36
2019-02-26T02:03:56.026Z,84.90
2019-02-26T02:08:50.655Z,85.28
2019-02-26T02:13:46.434Z,84.89
2019-02-26T02:18:45.993Z,86.05
2019-02-26T02:23:37.937Z,85.01
2019-02-26T02:28:33.707Z,84.92
2019-02-26T02:33:30.015Z,85.41
2019-02-26T02:38:25.217Z,84.93
2019-02-26T02:43:22.948Z,84.45
2019-02-26T02:48:16.155Z,83.21
2019-02-26T02:53:10.749Z,83.58
2019-02-26T02:58:05.367Z,83.20
2019-02-26T03:02:59.950Z,84.18
2019-02-26T03:07:56.365Z,84.92
2019-02-26T03:12:53.875Z,84.97
2019-02-26T03:17:47.301Z,85.45
2019-02-26T03:22:45.301Z,84.86
2019-02-26T03:27:40.605Z,85.56
2019-02-26T03:32:36.590Z,86.44
2019-02-26T03:37:31.891Z,85.81
2019-02-26T03:42:27.146Z,85.47
2019-02-26T03:47:21.772Z,86.60
2019-02-26T03:52:16.392Z,86.33
2019-02-26T03:57:11.493Z,85.96
2019-02-26T04:02:09.341Z,85.79
2019-02-26T04:07:07.187Z,84.80
2019-02-26T04:12:00.683Z,85.44
2019-02-26T04:16:57.613Z,85.90
2019-02-26T04:22:26.530Z,86.94
2019-02-26T04:27:48.438Z,87.20
2019-02-26T04:32:53.288Z,87.59
2019-02-26T04:38:18.245Z,89.34
2019-02-26T04:43:27.909Z,89.24
2019-02-26T04:48:29.134Z,88.45
2019-02-26T04:53:25.775Z,87.35
2019-02-26T04:58:20.756Z,87.05
2019-02-26T05:03:18.107Z,85.92
2019-02-26T05:08:14.744Z,85.39
2019-02-26T05:13:09.650Z,84.99
2019-02-26T05:18:04.604Z,85.91
2019-02-26T05:23:01.056Z,85.67
2019-02-26T05:27:55.497Z,88.04
2019-02-26T05:32:51.970Z,88.46
2019-02-26T05:37:46.390Z,88.53
2019-02-26T05:42:41.019Z,89.04
2019-02-26T05:47:35.606Z,87.78
2019-02-26T05:52:32.925Z,87.42
2019-02-26T05:57:32.392Z,86.19
2019-02-26T06:02:24.676Z,85.86
2019-02-26T06:07:22.044Z,84.59
2019-02-26T06:12:15.445Z,86.00
2019-02-26T06:17:12.515Z,86.90
2019-02-26T06:22:06.360Z,86.42
2019-02-26T06:27:00.949Z,84.87
2019-02-26T06:31:58.656Z,84.05
2019-02-26T06:36:57.840Z,85.12
2019-02-26T06:41:52.419Z,87.11
2019-02-26T06:46:47.029Z,85.96
2019-02-26T06:51:42.974Z,86.46
2019-02-26T06:56:43.275Z,85.71
2019-02-26T07:01:37.362Z,84.81
2019-02-26T07:06:33.141Z,82.56
2019-02-26T07:11:30.571Z,82.14
2019-02-26T07:16:30.575Z,81.99
2019-02-26T07:21:25.557Z,81.07
2019-02-26T07:26:20.892Z,80.64
2019-02-26T07:31:16.657Z,81.59
2019-02-26T07:36:11.254Z,80.09
2019-02-26T07:41:06.188Z,80.39
2019-02-26T07:46:05.069Z,81.09
2019-02-26T07:50:59.729Z,80.61
2019-02-26T07:55:56.332Z,80.12
2019-02-26T08:00:52.258Z,79.51
2019-02-26T08:05:46.979Z,79.33
2019-02-26T08:10:42.838Z,79.18
2019-02-26T08:15:39.789Z,79.09
2019-02-26T08:20:37.508Z,78.39
2019-02-26T08:25:31.774Z,78.63
2019-02-26T08:30:26.389Z,78.11
2019-02-26T08:35:21.151Z,77.79
2019-02-26T08:40:16.526Z,77.50
2019-02-26T08:45:26.355Z,76.78
2019-02-26T08:50:23.943Z,76.65
2019-02-26T08:55:22.269Z,75.57
2019-02-26T09:00:25.399Z,75.65
2019-02-26T09:05:23.963Z,75.15
2019-02-26T09:10:23.828Z,74.75
2019-02-26T09:15:22.398Z,74.01
2019-02-26T09:20:19.355Z,73.03
2019-02-26T09:25:15.769Z,72.44
2019-02-26T09:30:16.185Z,71.42
2019-02-26T09:35:25.239Z,71.01
2019-02-26T09:40:23.645Z,70.28
2019-02-26T09:45:30.102Z,69.75
2019-02-26T09:50:25.631Z,69.03
2019-02-26T09:55:22.977Z,68.67
2019-02-26T10:00:22.871Z,68.40
2019-02-26T10:05:18.289Z,67.58
2019-02-26T10:10:21.232Z,67.32
2019-02-26T10:15:19.340Z,65.75
2019-02-26T10:20:28.615Z,64.18
2019-02-26T10:25:23.412Z,63.54
2019-02-26T10:30:22.764Z,63.43
2019-02-26T10:35:32.492Z,62.29
2019-02-26T10:40:19.623Z,62.04
2019-02-26T10:45:29.057Z,61.23
2019-02-26T10:50:31.645Z,61.61
2019-02-26T10:55:31.258Z,60.77
2019-02-26T11:00:32.226Z,61.59
2019-02-26T11:05:26.455Z,62.78
2019-02-26T11:10:23.207Z,61.80
2019-02-26T11:15:26.986Z,61.62
2019-02-26T11:20:31.007Z,60.75
2019-02-26T11:25:31.390Z,59.71
2019-02-26T11:30:30.262Z,59.48
2019-02-26T11:35:25.402Z,57.90
2019-02-26T11:40:25.293Z,54.07
2019-02-26T11:45:24.718Z,54.74
2019-02-26T11:50:27.098Z,53.68
2019-02-26T11:55:18.537Z,50.00
2019-02-26T12:00:42.290Z,49.53
2019-02-26T12:05:38.902Z,49.88
2019-02-26T12:10:34.984Z,46.80
2019-02-26T12:15:30.226Z,45.49
2019-02-26T12:20:26.304Z,44.76
2019-02-26T12:25:25.753Z,44.83
2019-02-26T12:30:26.223Z,47.92
2019-02-26T12:35:21.081Z,45.12
2019-02-26T12:40:19.365Z,44.91
2019-02-26T12:45:17.452Z,43.04
2019-02-26T12:50:18.509Z,44.46
2019-02-26T12:55:15.636Z,45.00
2019-02-26T13:00:19.921Z,45.56
2019-02-26T13:05:17.443Z,45.52
2019-02-26T13:10:28.174Z,44.97
2019-02-26T13:15:23.575Z,45.86
2019-02-26T13:20:30.126Z,46.31
2019-02-26T13:25:27.549Z,46.35
2019-02-26T13:30:27.567Z,45.57
2019-02-26T13:35:22.796Z,45.54
2019-02-26T13:40:26.213Z,45.29
2019-02-26T13:45:23.905Z,45.40
2019-02-26T13:50:25.385Z,45.04
2019-02-26T13:55:20.036Z,44.93
2019-02-26T14:00:23.563Z,44.90
2019-02-26T14:05:19.489Z,44.94
2019-02-26T14:10:20.418Z,44.96
2019-02-26T14:15:27.409Z,45.43
2019-02-26T14:20:23.108Z,45.98
2019-02-26T14:25:19.159Z,45.08
2019-02-26T14:30:23.080Z,44.62
2019-02-26T14:35:17.952Z,44.94
2019-02-26T14:40:15.746Z,45.63
2019-02-26T14:45:22.714Z,46.68
2019-02-26T14:50:23.073Z,46.99
2019-02-26T14:55:18.193Z,47.02
2019-02-26T15:00:36.030Z,46.78
2019-02-26T15:05:31.296Z,45.83
2019-02-26T15:10:26.166Z,46.09
2019-02-26T15:15:21.954Z,46.16
2019-02-26T15:20:22.452Z,46.25
2019-02-26T15:25:23.945Z,46.03
2019-02-26T15:30:20.761Z,46.62
2019-02-26T15:35:15.529Z,46.70
2019-02-26T15:40:16.406Z,46.80
2019-02-26T15:45:17.843Z,47.44
2019-02-26T15:50:21.501Z,47.48
2019-02-26T15:55:22.163Z,47.63
2019-02-26T16:00:25.547Z,48.53
2019-02-26T16:05:21.938Z,49.36
2019-02-26T16:10:16.899Z,49.72
2019-02-26T16:15:18.736Z,49.79
2019-02-26T16:20:17.105Z,50.28
2019-02-26T16:25:12.321Z,51.29
2019-02-26T16:30:14.764Z,52.34
2019-02-26T16:35:09.666Z,53.09
2019-02-26T16:40:06.335Z,53.63
2019-02-26T16:45:01.671Z,53.85
2019-02-26T16:49:58.669Z,54.35
2019-02-26T16:54:52.730Z,55.09
2019-02-26T16:59:47.361Z,55.65
2019-02-26T17:04:42.407Z,56.06
2019-02-26T17:09:37.087Z,56.34
2019-02-26T17:14:31.768Z,56.99
2019-02-26T17:19:26.560Z,57.70
2019-02-26T17:24:21.389Z,59.03
2019-02-26T17:29:16.890Z,59.62
2019-02-26T17:34:12.446Z,60.16
2019-02-26T17:39:09.159Z,61.02
2019-02-26T17:44:03.751Z,61.29
2019-02-26T17:48:58.367Z,61.94
2019-02-26T17:53:53.028Z,62.48
2019-02-26T17:58:49.405Z,63.43
2019-02-26T18:03:45.315Z,63.79
2019-02-26T18:08:40.338Z,64.30
2019-02-26T18:13:34.987Z,64.23
2019-02-26T18:18:29.585Z,64.77
2019-02-26T18:23:24.181Z,65.29
2019-02-26T18:28:18.856Z,65.82
2019-02-26T18:33:13.457Z,65.95
2019-02-26T18:38:08.088Z,66.51
2019-02-26T18:43:02.676Z,66.77
2019-02-26T18:47:57.335Z,66.86
2019-02-26T18:52:52.001Z,66.72
2019-02-26T18:57:46.596Z,66.60
2019-02-26T19:02:42.215Z,64.90
2019-02-26T19:07:37.059Z,64.85
2019-02-26T19:12:31.678Z,64.88
2019-02-26T19:17:26.744Z,65.86
2019-02-26T19:22:21.850Z,67.10
2019-02-26T19:27:16.833Z,67.82
2019-02-26T19:32:15.450Z,68.50
2019-02-26T19:37:09.089Z,68.34
2019-02-26T19:42:03.693Z,68.76
2019-02-26T19:46:59.135Z,68.29
2019-02-26T19:51:53.741Z,68.82
2019-02-26T19:56:48.321Z,69.52
2019-02-26T20:01:42.936Z,69.48
2019-02-26T20:06:37.548Z,70.23
2019-02-26T20:11:32.137Z,70.78
2019-02-26T20:16:27.872Z,71.19
2019-02-26T20:21:23.224Z,71.83
2019-02-26T20:26:17.805Z,71.39
2019-02-26T20:31:12.399Z,71.45
2019-02-26T20:36:07.001Z,71.00
2019-02-26T20:41:01.587Z,70.63
2019-02-26T20:45:56.201Z,71.70
2019-02-26T20:50:53.469Z,72.12
2019-02-26T20:55:52.412Z,72.12
2019-02-26T21:00:43.448Z,72.86
2019-02-26T21:05:38.039Z,73.01
2019-02-26T21:10:33.403Z,73.21
2019-02-26T21:15:28.519Z,73.77
2019-02-26T21:20:23.117Z,74.62
2019-02-26T21:25:17.856Z,75.37
2019-02-26T21:30:18.932Z,75.44
2019-02-26T21:35:14.134Z,76.53
2019-02-26T21:40:15.936Z,76.53
2019-02-26T21:45:18.785Z,76.63
2019-02-26T21:50:17.272Z,76.80
2019-02-26T21:55:14.177Z,75.93
2019-02-26T22:00:23.669Z,76.06
2019-02-26T22:05:18.273Z,76.20
2019-02-26T22:10:19.308Z,76.81
2019-02-26T22:15:18.861Z,76.39
2019-02-26T22:20:23.411Z,76.86
2019-02-26T22:25:17.133Z,77.28
2019-02-26T22:30:22.236Z,77.00
2019-02-26T22:35:15.704Z,76.95
2019-02-26T22:40:15.361Z,77.29
2019-02-26T22:45:13.625Z,78.13
2019-02-26T22:50:14.716Z,78.19
2019-02-26T22:55:17.316Z,78.96
2019-02-26T23:00:48.229Z,78.54
2019-02-26T23:05:41.019Z,78.15
2019-02-26T23:10:35.782Z,79.05
2019-02-26T23:15:31.012Z,79.45
2019-02-26T23:20:25.668Z,80.23
2019-02-26T23:25:20.428Z,79.84
2019-02-26T23:30:15.419Z,80.23
2019-02-26T23:35:14.594Z,79.70
2019-02-26T23:40:12.993Z,79.41
2019-02-26T23:45:13.307Z,79.27
2019-02-26T23:50:10.214Z,79.55
2019-02-26T23:55:07.448Z,79.93
